sensor_id;sensor_type;location;lat;lon;timestamp;P1;durP1;ratioP1;P2;durP2;ratioP2
75488;SDS011;64069;46.396;48.102;2023-09-30T00:01:59;8.50;;;4.30;;
75488;SDS011;64069;46.396;48.102;2023-09-30T00:04:25;7.97;;;4.05;;
75488;SDS011;64069;46.396;48.102;2023-09-30T00:06:52;10.75;;;3.88;;
75488;SDS011;64069;46.396;48.102;2023-09-30T00:09:19;9.88;;;4.07;;
75488;SDS011;64069;46.396;48.102;2023-09-30T00:11:45;7.30;;;3.72;;
75488;SDS011;64069;46.396;48.102;2023-09-30T00:14:11;7.47;;;3.55;;
75488;SDS011;64069;46.396;48.102;2023-09-30T00:16:36;6.85;;;3.80;;
75488;SDS011;64069;46.396;48.102;2023-09-30T00:19:03;5.80;;;3.55;;
75488;SDS011;64069;46.396;48.102;2023-09-30T00:21:29;10.10;;;3.88;;
75488;SDS011;64069;46.396;48.102;2023-09-30T00:23:55;7.55;;;3.65;;
75488;SDS011;64069;46.396;48.102;2023-09-30T00:26:21;6.75;;;3.65;;
75488;SDS011;64069;46.396;48.102;2023-09-30T00:28:48;7.28;;;3.20;;
75488;SDS011;64069;46.396;48.102;2023-09-30T00:31:14;7.05;;;3.30;;
75488;SDS011;64069;46.396;48.102;2023-09-30T00:33:40;10.55;;;4.65;;
75488;SDS011;64069;46.396;48.102;2023-09-30T00:36:10;9.57;;;5.93;;
75488;SDS011;64069;46.396;48.102;2023-09-30T00:38:38;9.98;;;5.10;;
75488;SDS011;64069;46.396;48.102;2023-09-30T00:41:04;10.25;;;4.82;;
75488;SDS011;64069;46.396;48.102;2023-09-30T00:43:30;8.90;;;4.75;;
75488;SDS011;64069;46.396;48.102;2023-09-30T00:48:53;14.18;;;4.97;;
75488;SDS011;64069;46.396;48.102;2023-09-30T00:51:21;8.50;;;3.70;;
75488;SDS011;64069;46.396;48.102;2023-09-30T00:53:48;12.57;;;4.32;;
75488;SDS011;64069;46.396;48.102;2023-09-30T00:56:16;7.28;;;3.67;;
75488;SDS011;64069;46.396;48.102;2023-09-30T00:58:44;7.18;;;3.95;;
75488;SDS011;64069;46.396;48.102;2023-09-30T01:01:11;9.63;;;3.95;;
75488;SDS011;64069;46.396;48.102;2023-09-30T01:03:37;9.40;;;3.97;;
75488;SDS011;64069;46.396;48.102;2023-09-30T01:06:04;11.02;;;4.07;;
75488;SDS011;64069;46.396;48.102;2023-09-30T01:08:31;9.05;;;4.30;;
75488;SDS011;64069;46.396;48.102;2023-09-30T01:10:57;6.72;;;4.00;;
75488;SDS011;64069;46.396;48.102;2023-09-30T01:13:31;6.93;;;3.33;;
75488;SDS011;64069;46.396;48.102;2023-09-30T01:15:58;21.65;;;3.97;;
75488;SDS011;64069;46.396;48.102;2023-09-30T01:18:24;10.55;;;4.00;;
75488;SDS011;64069;46.396;48.102;2023-09-30T01:20:50;8.50;;;3.88;;
75488;SDS011;64069;46.396;48.102;2023-09-30T01:23:18;11.13;;;4.30;;
75488;SDS011;64069;46.396;48.102;2023-09-30T01:25:45;9.95;;;4.10;;
75488;SDS011;64069;46.396;48.102;2023-09-30T01:28:10;7.25;;;3.83;;
75488;SDS011;64069;46.396;48.102;2023-09-30T01:30:37;11.50;;;3.75;;
75488;SDS011;64069;46.396;48.102;2023-09-30T01:33:03;9.50;;;4.03;;
75488;SDS011;64069;46.396;48.102;2023-09-30T01:35:30;10.18;;;3.78;;
75488;SDS011;64069;46.396;48.102;2023-09-30T01:37:57;6.18;;;3.70;;
75488;SDS011;64069;46.396;48.102;2023-09-30T01:40:23;7.95;;;3.63;;
75488;SDS011;64069;46.396;48.102;2023-09-30T01:42:49;8.02;;;4.10;;
75488;SDS011;64069;46.396;48.102;2023-09-30T01:45:15;7.85;;;4.05;;
75488;SDS011;64069;46.396;48.102;2023-09-30T01:47:41;8.10;;;3.92;;
75488;SDS011;64069;46.396;48.102;2023-09-30T01:50:07;8.40;;;4.65;;
75488;SDS011;64069;46.396;48.102;2023-09-30T01:52:33;10.23;;;4.70;;
75488;SDS011;64069;46.396;48.102;2023-09-30T01:55:00;7.65;;;4.68;;
75488;SDS011;64069;46.396;48.102;2023-09-30T01:57:25;7.30;;;4.50;;
75488;SDS011;64069;46.396;48.102;2023-09-30T01:59:51;9.93;;;5.60;;
75488;SDS011;64069;46.396;48.102;2023-09-30T02:02:17;9.35;;;5.10;;
75488;SDS011;64069;46.396;48.102;2023-09-30T02:04:44;9.40;;;4.47;;
75488;SDS011;64069;46.396;48.102;2023-09-30T02:07:10;8.70;;;4.25;;
75488;SDS011;64069;46.396;48.102;2023-09-30T02:09:36;9.27;;;4.47;;
75488;SDS011;64069;46.396;48.102;2023-09-30T02:12:02;10.15;;;4.00;;
75488;SDS011;64069;46.396;48.102;2023-09-30T02:14:28;7.00;;;4.15;;
75488;SDS011;64069;46.396;48.102;2023-09-30T02:16:54;7.05;;;4.13;;
75488;SDS011;64069;46.396;48.102;2023-09-30T02:19:20;9.57;;;4.45;;
75488;SDS011;64069;46.396;48.102;2023-09-30T02:21:47;9.27;;;4.22;;
75488;SDS011;64069;46.396;48.102;2023-09-30T02:24:13;13.32;;;4.95;;
75488;SDS011;64069;46.396;48.102;2023-09-30T02:26:40;12.35;;;4.85;;
75488;SDS011;64069;46.396;48.102;2023-09-30T02:29:06;14.13;;;4.22;;
75488;SDS011;64069;46.396;48.102;2023-09-30T02:31:35;14.70;;;4.75;;
75488;SDS011;64069;46.396;48.102;2023-09-30T02:34:01;9.45;;;4.43;;
75488;SDS011;64069;46.396;48.102;2023-09-30T02:36:28;9.00;;;4.25;;
75488;SDS011;64069;46.396;48.102;2023-09-30T02:38:54;24.90;;;6.15;;
75488;SDS011;64069;46.396;48.102;2023-09-30T02:41:20;10.48;;;5.43;;
75488;SDS011;64069;46.396;48.102;2023-09-30T02:43:46;9.90;;;4.72;;
75488;SDS011;64069;46.396;48.102;2023-09-30T02:46:11;8.80;;;4.60;;
75488;SDS011;64069;46.396;48.102;2023-09-30T02:48:38;11.25;;;4.97;;
75488;SDS011;64069;46.396;48.102;2023-09-30T02:51:08;10.23;;;5.10;;
75488;SDS011;64069;46.396;48.102;2023-09-30T02:53:35;11.25;;;5.00;;
75488;SDS011;64069;46.396;48.102;2023-09-30T02:56:01;10.23;;;5.32;;
75488;SDS011;64069;46.396;48.102;2023-09-30T02:58:30;12.07;;;5.43;;
75488;SDS011;64069;46.396;48.102;2023-09-30T03:00:56;12.15;;;5.50;;
75488;SDS011;64069;46.396;48.102;2023-09-30T03:03:22;13.90;;;5.57;;
75488;SDS011;64069;46.396;48.102;2023-09-30T03:05:51;14.75;;;5.63;;
75488;SDS011;64069;46.396;48.102;2023-09-30T03:08:18;11.73;;;5.85;;
75488;SDS011;64069;46.396;48.102;2023-09-30T03:10:43;17.58;;;6.68;;
75488;SDS011;64069;46.396;48.102;2023-09-30T03:13:09;12.73;;;5.93;;
75488;SDS011;64069;46.396;48.102;2023-09-30T03:15:35;9.85;;;5.72;;
75488;SDS011;64069;46.396;48.102;2023-09-30T03:18:02;15.52;;;7.25;;
75488;SDS011;64069;46.396;48.102;2023-09-30T03:20:29;10.15;;;5.90;;
75488;SDS011;64069;46.396;48.102;2023-09-30T03:22:56;9.48;;;5.72;;
75488;SDS011;64069;46.396;48.102;2023-09-30T03:25:22;10.15;;;5.15;;
75488;SDS011;64069;46.396;48.102;2023-09-30T03:27:48;21.27;;;6.32;;
75488;SDS011;64069;46.396;48.102;2023-09-30T03:30:15;17.00;;;6.03;;
75488;SDS011;64069;46.396;48.102;2023-09-30T03:32:42;15.65;;;6.38;;
75488;SDS011;64069;46.396;48.102;2023-09-30T03:35:08;18.15;;;6.35;;
75488;SDS011;64069;46.396;48.102;2023-09-30T03:37:36;14.45;;;6.30;;
75488;SDS011;64069;46.396;48.102;2023-09-30T03:40:03;16.20;;;5.95;;
75488;SDS011;64069;46.396;48.102;2023-09-30T03:42:38;15.40;;;6.07;;
75488;SDS011;64069;46.396;48.102;2023-09-30T03:45:10;12.70;;;5.88;;
75488;SDS011;64069;46.396;48.102;2023-09-30T03:47:36;15.57;;;6.20;;
75488;SDS011;64069;46.396;48.102;2023-09-30T03:50:03;14.63;;;6.13;;
75488;SDS011;64069;46.396;48.102;2023-09-30T03:52:30;13.90;;;6.95;;
75488;SDS011;64069;46.396;48.102;2023-09-30T03:54:59;13.45;;;6.38;;
75488;SDS011;64069;46.396;48.102;2023-09-30T03:57:29;12.18;;;6.07;;
75488;SDS011;64069;46.396;48.102;2023-09-30T03:59:59;17.90;;;7.43;;
75488;SDS011;64069;46.396;48.102;2023-09-30T04:02:26;33.58;;;8.15;;
75488;SDS011;64069;46.396;48.102;2023-09-30T04:04:52;19.45;;;7.00;;
75488;SDS011;64069;46.396;48.102;2023-09-30T04:07:19;16.58;;;6.95;;
75488;SDS011;64069;46.396;48.102;2023-09-30T04:09:46;15.13;;;6.63;;
75488;SDS011;64069;46.396;48.102;2023-09-30T04:12:12;15.90;;;6.65;;
75488;SDS011;64069;46.396;48.102;2023-09-30T04:14:38;14.27;;;6.10;;
75488;SDS011;64069;46.396;48.102;2023-09-30T04:17:04;13.40;;;5.50;;
75488;SDS011;64069;46.396;48.102;2023-09-30T04:19:30;12.90;;;5.85;;
75488;SDS011;64069;46.396;48.102;2023-09-30T04:21:57;17.83;;;5.47;;
75488;SDS011;64069;46.396;48.102;2023-09-30T04:24:23;12.52;;;5.30;;
75488;SDS011;64069;46.396;48.102;2023-09-30T04:26:49;9.68;;;5.47;;
75488;SDS011;64069;46.396;48.102;2023-09-30T04:29:17;12.50;;;5.53;;
75488;SDS011;64069;46.396;48.102;2023-09-30T04:31:43;9.18;;;5.43;;
75488;SDS011;64069;46.396;48.102;2023-09-30T04:34:10;25.27;;;7.22;;
75488;SDS011;64069;46.396;48.102;2023-09-30T04:36:35;11.75;;;5.55;;
75488;SDS011;64069;46.396;48.102;2023-09-30T04:39:02;10.52;;;5.07;;
75488;SDS011;64069;46.396;48.102;2023-09-30T04:41:28;14.60;;;6.45;;
75488;SDS011;64069;46.396;48.102;2023-09-30T04:43:55;11.20;;;4.82;;
75488;SDS011;64069;46.396;48.102;2023-09-30T04:46:21;10.77;;;5.55;;
75488;SDS011;64069;46.396;48.102;2023-09-30T04:48:48;10.73;;;5.75;;
75488;SDS011;64069;46.396;48.102;2023-09-30T04:51:17;12.63;;;6.07;;
75488;SDS011;64069;46.396;48.102;2023-09-30T04:53:44;10.02;;;4.80;;
75488;SDS011;64069;46.396;48.102;2023-09-30T04:56:12;10.98;;;5.55;;
75488;SDS011;64069;46.396;48.102;2023-09-30T04:58:39;11.80;;;5.88;;
75488;SDS011;64069;46.396;48.102;2023-09-30T05:01:05;11.40;;;6.05;;
75488;SDS011;64069;46.396;48.102;2023-09-30T05:03:34;12.25;;;5.75;;
75488;SDS011;64069;46.396;48.102;2023-09-30T05:06:00;11.40;;;5.45;;
75488;SDS011;64069;46.396;48.102;2023-09-30T05:08:26;10.07;;;5.70;;
75488;SDS011;64069;46.396;48.102;2023-09-30T05:10:54;12.07;;;5.05;;
75488;SDS011;64069;46.396;48.102;2023-09-30T05:13:21;16.42;;;6.00;;
75488;SDS011;64069;46.396;48.102;2023-09-30T05:15:49;12.85;;;5.63;;
75488;SDS011;64069;46.396;48.102;2023-09-30T05:18:17;12.38;;;6.72;;
75488;SDS011;64069;46.396;48.102;2023-09-30T05:20:43;15.07;;;6.20;;
75488;SDS011;64069;46.396;48.102;2023-09-30T05:23:10;21.52;;;9.02;;
75488;SDS011;64069;46.396;48.102;2023-09-30T05:25:37;13.10;;;5.50;;
75488;SDS011;64069;46.396;48.102;2023-09-30T05:28:05;26.05;;;11.98;;
75488;SDS011;64069;46.396;48.102;2023-09-30T05:30:32;18.92;;;7.38;;
75488;SDS011;64069;46.396;48.102;2023-09-30T05:32:59;23.42;;;6.63;;
75488;SDS011;64069;46.396;48.102;2023-09-30T05:35:26;22.13;;;6.80;;
75488;SDS011;64069;46.396;48.102;2023-09-30T05:37:53;18.77;;;5.57;;
75488;SDS011;64069;46.396;48.102;2023-09-30T05:40:21;13.40;;;5.72;;
75488;SDS011;64069;46.396;48.102;2023-09-30T05:42:48;16.20;;;6.25;;
75488;SDS011;64069;46.396;48.102;2023-09-30T05:45:16;16.27;;;5.75;;
75488;SDS011;64069;46.396;48.102;2023-09-30T05:47:43;22.23;;;5.97;;
75488;SDS011;64069;46.396;48.102;2023-09-30T05:50:10;24.20;;;8.80;;
75488;SDS011;64069;46.396;48.102;2023-09-30T05:52:40;13.18;;;6.28;;
75488;SDS011;64069;46.396;48.102;2023-09-30T05:55:06;12.25;;;4.82;;
75488;SDS011;64069;46.396;48.102;2023-09-30T05:57:32;13.82;;;5.43;;
75488;SDS011;64069;46.396;48.102;2023-09-30T05:59:59;17.67;;;5.75;;
75488;SDS011;64069;46.396;48.102;2023-09-30T06:02:25;9.30;;;4.57;;
75488;SDS011;64069;46.396;48.102;2023-09-30T06:04:51;12.10;;;4.72;;
75488;SDS011;64069;46.396;48.102;2023-09-30T06:07:19;13.35;;;4.55;;
75488;SDS011;64069;46.396;48.102;2023-09-30T06:09:45;13.25;;;4.95;;
75488;SDS011;64069;46.396;48.102;2023-09-30T06:12:15;12.50;;;4.60;;
75488;SDS011;64069;46.396;48.102;2023-09-30T06:14:41;17.92;;;5.28;;
75488;SDS011;64069;46.396;48.102;2023-09-30T06:17:07;8.27;;;4.40;;
75488;SDS011;64069;46.396;48.102;2023-09-30T06:19:33;9.43;;;3.92;;
75488;SDS011;64069;46.396;48.102;2023-09-30T06:22:00;8.25;;;4.07;;
75488;SDS011;64069;46.396;48.102;2023-09-30T06:24:28;9.60;;;3.90;;
75488;SDS011;64069;46.396;48.102;2023-09-30T06:26:55;9.88;;;4.38;;
75488;SDS011;64069;46.396;48.102;2023-09-30T06:29:21;7.60;;;3.70;;
75488;SDS011;64069;46.396;48.102;2023-09-30T06:31:47;12.18;;;4.60;;
75488;SDS011;64069;46.396;48.102;2023-09-30T06:34:12;8.52;;;3.75;;
75488;SDS011;64069;46.396;48.102;2023-09-30T06:36:39;10.68;;;4.22;;
75488;SDS011;64069;46.396;48.102;2023-09-30T06:39:05;15.85;;;6.28;;
75488;SDS011;64069;46.396;48.102;2023-09-30T06:41:32;8.45;;;3.75;;
75488;SDS011;64069;46.396;48.102;2023-09-30T06:44:00;8.30;;;3.65;;
75488;SDS011;64069;46.396;48.102;2023-09-30T06:46:26;7.57;;;3.63;;
75488;SDS011;64069;46.396;48.102;2023-09-30T06:48:52;10.52;;;3.80;;
75488;SDS011;64069;46.396;48.102;2023-09-30T06:51:18;9.48;;;3.85;;
75488;SDS011;64069;46.396;48.102;2023-09-30T06:53:45;26.02;;;4.65;;
75488;SDS011;64069;46.396;48.102;2023-09-30T06:56:19;8.25;;;4.22;;
75488;SDS011;64069;46.396;48.102;2023-09-30T06:58:45;12.95;;;4.13;;
75488;SDS011;64069;46.396;48.102;2023-09-30T07:01:14;12.13;;;4.22;;
75488;SDS011;64069;46.396;48.102;2023-09-30T07:03:44;9.35;;;3.80;;
75488;SDS011;64069;46.396;48.102;2023-09-30T07:06:10;9.88;;;3.92;;
75488;SDS011;64069;46.396;48.102;2023-09-30T07:08:36;8.48;;;3.50;;
75488;SDS011;64069;46.396;48.102;2023-09-30T07:11:03;12.93;;;3.72;;
75488;SDS011;64069;46.396;48.102;2023-09-30T07:13:31;10.43;;;3.55;;
75488;SDS011;64069;46.396;48.102;2023-09-30T07:15:57;7.93;;;3.72;;
75488;SDS011;64069;46.396;48.102;2023-09-30T07:18:23;11.88;;;3.65;;
75488;SDS011;64069;46.396;48.102;2023-09-30T07:20:50;9.05;;;4.10;;
75488;SDS011;64069;46.396;48.102;2023-09-30T07:23:16;13.75;;;3.60;;
75488;SDS011;64069;46.396;48.102;2023-09-30T07:25:42;7.88;;;3.40;;
75488;SDS011;64069;46.396;48.102;2023-09-30T07:28:08;5.85;;;3.28;;
75488;SDS011;64069;46.396;48.102;2023-09-30T07:30:37;18.00;;;4.32;;
75488;SDS011;64069;46.396;48.102;2023-09-30T07:33:03;10.38;;;4.80;;
75488;SDS011;64069;46.396;48.102;2023-09-30T07:35:29;7.13;;;3.60;;
75488;SDS011;64069;46.396;48.102;2023-09-30T07:37:56;12.88;;;4.20;;
75488;SDS011;64069;46.396;48.102;2023-09-30T07:40:23;10.93;;;4.35;;
75488;SDS011;64069;46.396;48.102;2023-09-30T07:42:49;7.85;;;3.40;;
75488;SDS011;64069;46.396;48.102;2023-09-30T07:45:16;8.65;;;3.55;;
75488;SDS011;64069;46.396;48.102;2023-09-30T07:47:43;13.70;;;5.78;;
75488;SDS011;64069;46.396;48.102;2023-09-30T07:50:14;17.80;;;6.65;;
75488;SDS011;64069;46.396;48.102;2023-09-30T07:52:41;8.98;;;3.35;;
75488;SDS011;64069;46.396;48.102;2023-09-30T07:55:08;9.07;;;4.10;;
75488;SDS011;64069;46.396;48.102;2023-09-30T07:57:35;8.63;;;3.92;;
75488;SDS011;64069;46.396;48.102;2023-09-30T08:00:02;9.85;;;2.78;;
75488;SDS011;64069;46.396;48.102;2023-09-30T08:02:35;8.70;;;2.83;;
75488;SDS011;64069;46.396;48.102;2023-09-30T08:05:02;8.75;;;2.95;;
75488;SDS011;64069;46.396;48.102;2023-09-30T08:07:28;13.90;;;3.65;;
75488;SDS011;64069;46.396;48.102;2023-09-30T08:09:54;6.78;;;2.97;;
75488;SDS011;64069;46.396;48.102;2023-09-30T08:12:21;9.60;;;3.17;;
75488;SDS011;64069;46.396;48.102;2023-09-30T08:14:47;6.05;;;3.15;;
75488;SDS011;64069;46.396;48.102;2023-09-30T08:17:14;7.38;;;3.08;;
75488;SDS011;64069;46.396;48.102;2023-09-30T08:19:41;10.40;;;2.92;;
75488;SDS011;64069;46.396;48.102;2023-09-30T08:22:07;9.15;;;3.30;;
75488;SDS011;64069;46.396;48.102;2023-09-30T08:24:34;16.73;;;6.97;;
75488;SDS011;64069;46.396;48.102;2023-09-30T08:27:01;9.25;;;2.63;;
75488;SDS011;64069;46.396;48.102;2023-09-30T08:29:27;4.85;;;2.20;;
75488;SDS011;64069;46.396;48.102;2023-09-30T08:31:53;5.93;;;2.42;;
75488;SDS011;64069;46.396;48.102;2023-09-30T08:34:19;5.60;;;3.00;;
75488;SDS011;64069;46.396;48.102;2023-09-30T08:36:47;7.63;;;3.10;;
75488;SDS011;64069;46.396;48.102;2023-09-30T08:39:13;7.95;;;2.70;;
75488;SDS011;64069;46.396;48.102;2023-09-30T08:41:39;9.88;;;3.00;;
75488;SDS011;64069;46.396;48.102;2023-09-30T08:44:09;8.57;;;2.83;;
75488;SDS011;64069;46.396;48.102;2023-09-30T08:46:38;7.88;;;2.50;;
75488;SDS011;64069;46.396;48.102;2023-09-30T08:49:06;8.65;;;2.50;;
75488;SDS011;64069;46.396;48.102;2023-09-30T08:51:32;37.25;;;4.75;;
75488;SDS011;64069;46.396;48.102;2023-09-30T08:53:59;15.07;;;2.83;;
75488;SDS011;64069;46.396;48.102;2023-09-30T08:56:27;10.82;;;2.55;;
75488;SDS011;64069;46.396;48.102;2023-09-30T08:58:56;5.20;;;2.63;;
75488;SDS011;64069;46.396;48.102;2023-09-30T09:01:30;7.75;;;2.80;;
75488;SDS011;64069;46.396;48.102;2023-09-30T09:03:57;5.70;;;2.72;;
75488;SDS011;64069;46.396;48.102;2023-09-30T09:06:24;5.60;;;2.35;;
75488;SDS011;64069;46.396;48.102;2023-09-30T09:08:51;5.65;;;2.20;;
75488;SDS011;64069;46.396;48.102;2023-09-30T09:11:18;7.32;;;2.40;;
75488;SDS011;64069;46.396;48.102;2023-09-30T09:13:50;7.70;;;2.60;;
75488;SDS011;64069;46.396;48.102;2023-09-30T09:16:21;10.93;;;2.80;;
75488;SDS011;64069;46.396;48.102;2023-09-30T09:18:48;6.20;;;2.50;;
75488;SDS011;64069;46.396;48.102;2023-09-30T09:21:16;7.55;;;2.80;;
75488;SDS011;64069;46.396;48.102;2023-09-30T09:23:44;32.30;;;4.50;;
75488;SDS011;64069;46.396;48.102;2023-09-30T09:26:25;12.45;;;2.75;;
75488;SDS011;64069;46.396;48.102;2023-09-30T09:29:04;5.85;;;2.70;;
75488;SDS011;64069;46.396;48.102;2023-09-30T09:31:33;7.10;;;2.83;;
75488;SDS011;64069;46.396;48.102;2023-09-30T09:34:03;5.03;;;2.38;;
75488;SDS011;64069;46.396;48.102;2023-09-30T09:36:41;5.90;;;2.47;;
75488;SDS011;64069;46.396;48.102;2023-09-30T09:39:09;9.95;;;2.80;;
75488;SDS011;64069;46.396;48.102;2023-09-30T09:41:48;8.68;;;2.28;;
75488;SDS011;64069;46.396;48.102;2023-09-30T09:44:18;7.80;;;2.80;;
75488;SDS011;64069;46.396;48.102;2023-09-30T09:46:47;7.32;;;2.33;;
75488;SDS011;64069;46.396;48.102;2023-09-30T09:49:15;4.30;;;2.13;;
75488;SDS011;64069;46.396;48.102;2023-09-30T09:51:43;7.72;;;2.42;;
75488;SDS011;64069;46.396;48.102;2023-09-30T09:54:11;6.13;;;2.30;;
75488;SDS011;64069;46.396;48.102;2023-09-30T09:56:38;11.65;;;3.35;;
75488;SDS011;64069;46.396;48.102;2023-09-30T09:59:06;7.85;;;2.50;;
75488;SDS011;64069;46.396;48.102;2023-09-30T10:01:34;6.95;;;2.42;;
75488;SDS011;64069;46.396;48.102;2023-09-30T10:04:04;9.13;;;2.50;;
75488;SDS011;64069;46.396;48.102;2023-09-30T10:06:33;7.60;;;2.83;;
75488;SDS011;64069;46.396;48.102;2023-09-30T10:09:09;6.72;;;2.70;;
75488;SDS011;64069;46.396;48.102;2023-09-30T10:11:38;8.02;;;2.33;;
75488;SDS011;64069;46.396;48.102;2023-09-30T10:14:05;5.75;;;2.20;;
75488;SDS011;64069;46.396;48.102;2023-09-30T10:19:07;5.50;;;2.75;;
75488;SDS011;64069;46.396;48.102;2023-09-30T10:21:34;4.90;;;2.40;;
75488;SDS011;64069;46.396;48.102;2023-09-30T10:29:57;6.95;;;2.42;;
75488;SDS011;64069;46.396;48.102;2023-09-30T10:35:21;11.48;;;3.15;;
75488;SDS011;64069;46.396;48.102;2023-09-30T10:40:51;4.00;;;2.08;;
75488;SDS011;64069;46.396;48.102;2023-09-30T10:43:36;6.30;;;2.58;;
75488;SDS011;64069;46.396;48.102;2023-09-30T10:48:53;7.28;;;2.33;;
75488;SDS011;64069;46.396;48.102;2023-09-30T10:51:20;11.93;;;2.33;;
75488;SDS011;64069;46.396;48.102;2023-09-30T10:53:51;18.58;;;4.25;;
75488;SDS011;64069;46.396;48.102;2023-09-30T10:56:32;10.73;;;3.20;;
75488;SDS011;64069;46.396;48.102;2023-09-30T10:58:59;5.35;;;2.40;;
75488;SDS011;64069;46.396;48.102;2023-09-30T11:01:34;6.35;;;2.72;;
75488;SDS011;64069;46.396;48.102;2023-09-30T11:04:02;6.75;;;2.33;;
75488;SDS011;64069;46.396;48.102;2023-09-30T11:06:29;6.88;;;2.80;;
75488;SDS011;64069;46.396;48.102;2023-09-30T11:08:59;4.57;;;2.67;;
75488;SDS011;64069;46.396;48.102;2023-09-30T11:14:03;6.32;;;2.78;;
75488;SDS011;64069;46.396;48.102;2023-09-30T11:16:42;8.57;;;2.50;;
75488;SDS011;64069;46.396;48.102;2023-09-30T11:19:11;5.85;;;2.65;;
75488;SDS011;64069;46.396;48.102;2023-09-30T11:21:39;8.68;;;2.55;;
75488;SDS011;64069;46.396;48.102;2023-09-30T11:24:07;8.38;;;2.97;;
75488;SDS011;64069;46.396;48.102;2023-09-30T11:26:34;7.78;;;2.70;;
75488;SDS011;64069;46.396;48.102;2023-09-30T11:29:11;8.52;;;2.70;;
75488;SDS011;64069;46.396;48.102;2023-09-30T11:31:39;4.95;;;2.58;;
75488;SDS011;64069;46.396;48.102;2023-09-30T11:34:07;6.78;;;2.30;;
75488;SDS011;64069;46.396;48.102;2023-09-30T11:36:35;4.88;;;2.40;;
75488;SDS011;64069;46.396;48.102;2023-09-30T11:39:02;4.68;;;2.35;;
75488;SDS011;64069;46.396;48.102;2023-09-30T11:41:33;7.93;;;2.55;;
75488;SDS011;64069;46.396;48.102;2023-09-30T11:46:46;4.38;;;2.33;;
75488;SDS011;64069;46.396;48.102;2023-09-30T11:49:24;9.02;;;2.45;;
75488;SDS011;64069;46.396;48.102;2023-09-30T11:51:58;8.52;;;2.55;;
75488;SDS011;64069;46.396;48.102;2023-09-30T11:54:29;11.65;;;3.17;;
75488;SDS011;64069;46.396;48.102;2023-09-30T11:57:04;6.05;;;3.00;;
75488;SDS011;64069;46.396;48.102;2023-09-30T11:59:30;12.07;;;2.95;;
75488;SDS011;64069;46.396;48.102;2023-09-30T12:01:58;4.93;;;2.67;;
75488;SDS011;64069;46.396;48.102;2023-09-30T12:04:25;16.40;;;3.08;;
75488;SDS011;64069;46.396;48.102;2023-09-30T12:06:51;7.18;;;2.47;;
75488;SDS011;64069;46.396;48.102;2023-09-30T12:09:18;13.20;;;3.28;;
75488;SDS011;64069;46.396;48.102;2023-09-30T12:11:54;10.07;;;2.90;;
75488;SDS011;64069;46.396;48.102;2023-09-30T12:14:21;5.78;;;2.65;;
75488;SDS011;64069;46.396;48.102;2023-09-30T12:16:50;11.30;;;2.83;;
75488;SDS011;64069;46.396;48.102;2023-09-30T12:19:17;6.53;;;3.05;;
75488;SDS011;64069;46.396;48.102;2023-09-30T12:21:45;13.18;;;3.55;;
75488;SDS011;64069;46.396;48.102;2023-09-30T12:24:13;5.53;;;2.47;;
75488;SDS011;64069;46.396;48.102;2023-09-30T12:26:47;6.43;;;2.55;;
75488;SDS011;64069;46.396;48.102;2023-09-30T12:29:15;5.78;;;2.53;;
75488;SDS011;64069;46.396;48.102;2023-09-30T12:34:14;6.88;;;2.75;;
75488;SDS011;64069;46.396;48.102;2023-09-30T12:36:41;5.15;;;2.83;;
75488;SDS011;64069;46.396;48.102;2023-09-30T12:39:08;8.38;;;2.67;;
75488;SDS011;64069;46.396;48.102;2023-09-30T12:41:38;4.03;;;2.15;;
75488;SDS011;64069;46.396;48.102;2023-09-30T12:44:08;11.55;;;4.95;;
75488;SDS011;64069;46.396;48.102;2023-09-30T12:46:38;11.10;;;3.17;;
75488;SDS011;64069;46.396;48.102;2023-09-30T12:49:05;7.65;;;3.65;;
75488;SDS011;64069;46.396;48.102;2023-09-30T12:51:33;7.20;;;2.40;;
75488;SDS011;64069;46.396;48.102;2023-09-30T12:54:00;12.10;;;2.75;;
75488;SDS011;64069;46.396;48.102;2023-09-30T12:56:26;3.45;;;2.28;;
75488;SDS011;64069;46.396;48.102;2023-09-30T12:58:56;13.13;;;3.33;;
75488;SDS011;64069;46.396;48.102;2023-09-30T13:01:23;10.40;;;3.22;;
75488;SDS011;64069;46.396;48.102;2023-09-30T13:03:49;14.75;;;3.53;;
75488;SDS011;64069;46.396;48.102;2023-09-30T13:06:18;8.20;;;2.92;;
75488;SDS011;64069;46.396;48.102;2023-09-30T13:08:45;7.95;;;2.65;;
75488;SDS011;64069;46.396;48.102;2023-09-30T13:11:12;8.45;;;2.70;;
75488;SDS011;64069;46.396;48.102;2023-09-30T13:13:40;7.70;;;2.55;;
75488;SDS011;64069;46.396;48.102;2023-09-30T13:16:10;8.63;;;2.88;;
75488;SDS011;64069;46.396;48.102;2023-09-30T13:18:38;17.13;;;3.45;;
75488;SDS011;64069;46.396;48.102;2023-09-30T13:21:04;33.05;;;5.15;;
75488;SDS011;64069;46.396;48.102;2023-09-30T13:23:31;13.95;;;3.72;;
75488;SDS011;64069;46.396;48.102;2023-09-30T13:25:58;16.98;;;3.60;;
75488;SDS011;64069;46.396;48.102;2023-09-30T13:28:24;20.55;;;7.18;;
75488;SDS011;64069;46.396;48.102;2023-09-30T13:30:53;56.88;;;21.05;;
75488;SDS011;64069;46.396;48.102;2023-09-30T13:33:19;40.67;;;14.07;;
75488;SDS011;64069;46.396;48.102;2023-09-30T13:35:49;56.47;;;21.45;;
75488;SDS011;64069;46.396;48.102;2023-09-30T13:38:16;40.45;;;13.18;;
75488;SDS011;64069;46.396;48.102;2023-09-30T13:40:44;29.30;;;5.60;;
75488;SDS011;64069;46.396;48.102;2023-09-30T13:43:12;24.33;;;4.78;;
75488;SDS011;64069;46.396;48.102;2023-09-30T13:45:39;25.25;;;4.60;;
75488;SDS011;64069;46.396;48.102;2023-09-30T13:48:05;20.95;;;5.80;;
75488;SDS011;64069;46.396;48.102;2023-09-30T13:50:33;20.30;;;5.85;;
75488;SDS011;64069;46.396;48.102;2023-09-30T13:53:00;18.10;;;4.78;;
75488;SDS011;64069;46.396;48.102;2023-09-30T13:55:28;47.03;;;12.18;;
75488;SDS011;64069;46.396;48.102;2023-09-30T13:57:55;38.65;;;10.35;;
75488;SDS011;64069;46.396;48.102;2023-09-30T14:00:22;106.47;;;39.47;;
75488;SDS011;64069;46.396;48.102;2023-09-30T14:02:50;74.50;;;19.05;;
75488;SDS011;64069;46.396;48.102;2023-09-30T14:05:17;37.38;;;13.88;;
75488;SDS011;64069;46.396;48.102;2023-09-30T14:07:44;64.45;;;13.70;;
75488;SDS011;64069;46.396;48.102;2023-09-30T14:10:11;65.95;;;15.43;;
75488;SDS011;64069;46.396;48.102;2023-09-30T14:12:38;135.18;;;45.75;;
75488;SDS011;64069;46.396;48.102;2023-09-30T14:15:07;123.18;;;37.13;;
75488;SDS011;64069;46.396;48.102;2023-09-30T14:17:35;127.07;;;37.35;;
75488;SDS011;64069;46.396;48.102;2023-09-30T14:20:02;165.20;;;32.72;;
75488;SDS011;64069;46.396;48.102;2023-09-30T14:22:30;90.47;;;16.67;;
75488;SDS011;64069;46.396;48.102;2023-09-30T14:24:57;113.15;;;19.35;;
75488;SDS011;64069;46.396;48.102;2023-09-30T14:27:23;109.65;;;20.42;;
75488;SDS011;64069;46.396;48.102;2023-09-30T14:29:51;46.33;;;9.93;;
75488;SDS011;64069;46.396;48.102;2023-09-30T14:32:17;52.72;;;9.93;;
75488;SDS011;64069;46.396;48.102;2023-09-30T14:34:46;59.83;;;9.88;;
75488;SDS011;64069;46.396;48.102;2023-09-30T14:37:12;103.35;;;12.82;;
75488;SDS011;64069;46.396;48.102;2023-09-30T14:39:40;73.65;;;16.45;;
75488;SDS011;64069;46.396;48.102;2023-09-30T14:42:07;104.20;;;21.42;;
75488;SDS011;64069;46.396;48.102;2023-09-30T14:44:37;101.03;;;23.08;;
75488;SDS011;64069;46.396;48.102;2023-09-30T14:47:03;82.22;;;24.35;;
75488;SDS011;64069;46.396;48.102;2023-09-30T14:49:33;74.80;;;21.60;;
75488;SDS011;64069;46.396;48.102;2023-09-30T14:52:01;97.15;;;29.35;;
75488;SDS011;64069;46.396;48.102;2023-09-30T14:54:28;124.32;;;27.42;;
75488;SDS011;64069;46.396;48.102;2023-09-30T14:56:57;122.75;;;25.50;;